sensor_id;sensor_type;location;lat;lon;timestamp;temperature;humidity
18365;DHT22;9309;52.126;11.616;2023-03-03T00:01:15;0.50;91.20
18365;DHT22;9309;52.126;11.616;2023-03-03T00:03:42;0.20;90.30
18365;DHT22;9309;52.126;11.616;2023-03-03T00:06:11;0.10;90.90
18365;DHT22;9309;52.126;11.616;2023-03-03T00:08:39;0.00;91.40
18365;DHT22;9309;52.126;11.616;2023-03-03T00:11:08;-0.10;92.10
18365;DHT22;9309;52.126;11.616;2023-03-03T00:13:43;-0.10;92.20
18365;DHT22;9309;52.126;11.616;2023-03-03T00:16:15;-0.10;92.00
18365;DHT22;9309;52.126;11.616;2023-03-03T00:18:44;-0.10;93.00
18365;DHT22;9309;52.126;11.616;2023-03-03T00:21:23;0.00;93.50
18365;DHT22;9309;52.126;11.616;2023-03-03T00:23:51;-0.10;93.20
18365;DHT22;9309;52.126;11.616;2023-03-03T00:26:22;-0.10;93.90
18365;DHT22;9309;52.126;11.616;2023-03-03T00:28:52;-0.10;94.20
18365;DHT22;9309;52.126;11.616;2023-03-03T00:31:20;-0.20;93.60
18365;DHT22;9309;52.126;11.616;2023-03-03T00:33:51;-0.20;93.80
18365;DHT22;9309;52.126;11.616;2023-03-03T00:36:29;-0.30;94.10
18365;DHT22;9309;52.126;11.616;2023-03-03T00:39:12;-0.30;93.80
18365;DHT22;9309;52.126;11.616;2023-03-03T00:41:41;-0.30;94.40
18365;DHT22;9309;52.126;11.616;2023-03-03T00:44:33;-0.30;94.40
18365;DHT22;9309;52.126;11.616;2023-03-03T00:47:22;-0.30;95.20
18365;DHT22;9309;52.126;11.616;2023-03-03T00:49:50;-0.30;95.70
18365;DHT22;9309;52.126;11.616;2023-03-03T00:52:18;0.00;95.40
18365;DHT22;9309;52.126;11.616;2023-03-03T00:54:44;0.00;94.20
18365;DHT22;9309;52.126;11.616;2023-03-03T00:57:12;-0.10;94.80
18365;DHT22;9309;52.126;11.616;2023-03-03T00:59:40;0.00;95.40
18365;DHT22;9309;52.126;11.616;2023-03-03T01:02:07;0.20;94.50
18365;DHT22;9309;52.126;11.616;2023-03-03T01:04:35;0.00;93.70
18365;DHT22;9309;52.126;11.616;2023-03-03T01:07:02;-0.10;93.80
18365;DHT22;9309;52.126;11.616;2023-03-03T01:09:28;-0.20;94.70
18365;DHT22;9309;52.126;11.616;2023-03-03T01:11:55;-0.30;95.10
18365;DHT22;9309;52.126;11.616;2023-03-03T01:14:23;-0.40;95.40
18365;DHT22;9309;52.126;11.616;2023-03-03T01:16:50;-0.30;95.70
18365;DHT22;9309;52.126;11.616;2023-03-03T01:19:17;-0.20;95.70
18365;DHT22;9309;52.126;11.616;2023-03-03T01:21:43;-0.10;96.20
18365;DHT22;9309;52.126;11.616;2023-03-03T01:24:10;0.00;95.70
18365;DHT22;9309;52.126;11.616;2023-03-03T01:26:37;0.20;93.50
18365;DHT22;9309;52.126;11.616;2023-03-03T01:29:04;0.00;93.60
18365;DHT22;9309;52.126;11.616;2023-03-03T01:31:32;-0.10;94.00
18365;DHT22;9309;52.126;11.616;2023-03-03T01:33:58;-0.20;94.70
18365;DHT22;9309;52.126;11.616;2023-03-03T01:36:27;-0.20;95.40
18365;DHT22;9309;52.126;11.616;2023-03-03T01:38:54;-0.10;95.20
18365;DHT22;9309;52.126;11.616;2023-03-03T01:41:21;-0.10;95.10
18365;DHT22;9309;52.126;11.616;2023-03-03T01:43:49;0.00;95.70
18365;DHT22;9309;52.126;11.616;2023-03-03T01:46:32;0.10;95.20
18365;DHT22;9309;52.126;11.616;2023-03-03T01:49:04;0.00;94.40
18365;DHT22;9309;52.126;11.616;2023-03-03T01:51:34;0.10;94.90
18365;DHT22;9309;52.126;11.616;2023-03-03T01:54:05;0.30;94.10
18365;DHT22;9309;52.126;11.616;2023-03-03T01:56:37;0.20;93.70
18365;DHT22;9309;52.126;11.616;2023-03-03T01:59:06;0.10;93.80
18365;DHT22;9309;52.126;11.616;2023-03-03T02:01:36;0.20;93.90
18365;DHT22;9309;52.126;11.616;2023-03-03T02:04:03;0.20;94.10
18365;DHT22;9309;52.126;11.616;2023-03-03T02:06:33;0.20;93.50
18365;DHT22;9309;52.126;11.616;2023-03-03T02:09:04;0.20;92.90
18365;DHT22;9309;52.126;11.616;2023-03-03T02:11:36;0.20;93.40
18365;DHT22;9309;52.126;11.616;2023-03-03T02:14:02;0.20;93.80
18365;DHT22;9309;52.126;11.616;2023-03-03T02:16:30;0.30;93.90
18365;DHT22;9309;52.126;11.616;2023-03-03T02:18:59;0.30;93.30
18365;DHT22;9309;52.126;11.616;2023-03-03T02:21:26;0.20;93.80
18365;DHT22;9309;52.126;11.616;2023-03-03T02:23:59;0.40;93.90
18365;DHT22;9309;52.126;11.616;2023-03-03T02:26:33;0.50;93.10
18365;DHT22;9309;52.126;11.616;2023-03-03T02:29:05;0.60;91.30
18365;DHT22;9309;52.126;11.616;2023-03-03T02:31:32;0.50;92.20
18365;DHT22;9309;52.126;11.616;2023-03-03T02:33:59;0.60;92.30
18365;DHT22;9309;52.126;11.616;2023-03-03T02:36:28;0.60;92.30
18365;DHT22;9309;52.126;11.616;2023-03-03T02:39:00;0.50;92.50
18365;DHT22;9309;52.126;11.616;2023-03-03T02:41:33;0.60;91.50
18365;DHT22;9309;52.126;11.616;2023-03-03T02:44:05;0.60;92.20
18365;DHT22;9309;52.126;11.616;2023-03-03T02:46:33;0.70;91.60
18365;DHT22;9309;52.126;11.616;2023-03-03T02:49:01;0.60;92.00
18365;DHT22;9309;52.126;11.616;2023-03-03T02:51:28;0.70;92.50
18365;DHT22;9309;52.126;11.616;2023-03-03T02:53:55;0.80;91.90
18365;DHT22;9309;52.126;11.616;2023-03-03T02:56:23;1.10;90.90
18365;DHT22;9309;52.126;11.616;2023-03-03T02:58:51;1.20;88.80
18365;DHT22;9309;52.126;11.616;2023-03-03T03:01:18;1.00;89.40
18365;DHT22;9309;52.126;11.616;2023-03-03T03:03:45;1.00;89.70
18365;DHT22;9309;52.126;11.616;2023-03-03T03:06:15;0.90;90.10
18365;DHT22;9309;52.126;11.616;2023-03-03T03:08:42;0.80;90.30
18365;DHT22;9309;52.126;11.616;2023-03-03T03:11:09;0.90;91.00
18365;DHT22;9309;52.126;11.616;2023-03-03T03:13:37;0.90;90.00
18365;DHT22;9309;52.126;11.616;2023-03-03T03:16:06;0.60;91.30
18365;DHT22;9309;52.126;11.616;2023-03-03T03:18:33;0.60;92.40
18365;DHT22;9309;52.126;11.616;2023-03-03T03:21:08;0.60;92.60
18365;DHT22;9309;52.126;11.616;2023-03-03T03:23:37;0.70;92.60
18365;DHT22;9309;52.126;11.616;2023-03-03T03:26:05;0.70;91.60
18365;DHT22;9309;52.126;11.616;2023-03-03T03:28:32;0.70;91.10
18365;DHT22;9309;52.126;11.616;2023-03-03T03:30:59;0.80;90.60
18365;DHT22;9309;52.126;11.616;2023-03-03T03:33:27;0.80;90.30
18365;DHT22;9309;52.126;11.616;2023-03-03T03:35:56;0.60;90.60
18365;DHT22;9309;52.126;11.616;2023-03-03T03:38:24;0.70;90.70
18365;DHT22;9309;52.126;11.616;2023-03-03T03:40:52;0.80;90.30
18365;DHT22;9309;52.126;11.616;2023-03-03T03:43:19;0.90;89.70
18365;DHT22;9309;52.126;11.616;2023-03-03T03:45:46;0.90;89.50
18365;DHT22;9309;52.126;11.616;2023-03-03T03:48:14;1.10;89.30
18365;DHT22;9309;52.126;11.616;2023-03-03T03:50:44;1.10;89.10
18365;DHT22;9309;52.126;11.616;2023-03-03T03:53:11;1.20;88.30
18365;DHT22;9309;52.126;11.616;2023-03-03T03:55:37;1.10;88.40
18365;DHT22;9309;52.126;11.616;2023-03-03T03:58:04;1.00;88.60
18365;DHT22;9309;52.126;11.616;2023-03-03T04:00:31;1.00;89.20
18365;DHT22;9309;52.126;11.616;2023-03-03T04:02:59;0.90;89.30
18365;DHT22;9309;52.126;11.616;2023-03-03T04:05:27;1.00;89.80
18365;DHT22;9309;52.126;11.616;2023-03-03T04:07:55;1.00;89.40
18365;DHT22;9309;52.126;11.616;2023-03-03T04:10:22;1.10;89.20
18365;DHT22;9309;52.126;11.616;2023-03-03T04:12:49;1.10;88.70
18365;DHT22;9309;52.126;11.616;2023-03-03T04:15:16;1.00;89.60
18365;DHT22;9309;52.126;11.616;2023-03-03T04:17:43;0.90;89.00
18365;DHT22;9309;52.126;11.616;2023-03-03T04:20:13;0.90;89.60
18365;DHT22;9309;52.126;11.616;2023-03-03T04:22:42;0.90;90.10
18365;DHT22;9309;52.126;11.616;2023-03-03T04:25:13;0.80;90.40
18365;DHT22;9309;52.126;11.616;2023-03-03T04:27:41;0.80;89.40
18365;DHT22;9309;52.126;11.616;2023-03-03T04:30:10;0.80;89.90
18365;DHT22;9309;52.126;11.616;2023-03-03T04:32:38;0.80;90.10
18365;DHT22;9309;52.126;11.616;2023-03-03T04:35:08;0.70;90.00
18365;DHT22;9309;52.126;11.616;2023-03-03T04:37:38;0.90;89.90
18365;DHT22;9309;52.126;11.616;2023-03-03T04:40:07;0.90;88.70
18365;DHT22;9309;52.126;11.616;2023-03-03T04:42:36;1.00;88.80
18365;DHT22;9309;52.126;11.616;2023-03-03T04:45:05;1.20;88.60
18365;DHT22;9309;52.126;11.616;2023-03-03T04:47:33;1.20;87.90
18365;DHT22;9309;52.126;11.616;2023-03-03T04:50:00;1.20;88.30
18365;DHT22;9309;52.126;11.616;2023-03-03T04:52:29;1.10;88.50
18365;DHT22;9309;52.126;11.616;2023-03-03T04:54:57;1.10;87.80
18365;DHT22;9309;52.126;11.616;2023-03-03T04:57:24;0.80;88.90
18365;DHT22;9309;52.126;11.616;2023-03-03T04:59:53;0.90;89.30
18365;DHT22;9309;52.126;11.616;2023-03-03T05:02:21;1.10;88.70
18365;DHT22;9309;52.126;11.616;2023-03-03T05:04:47;1.00;88.00
18365;DHT22;9309;52.126;11.616;2023-03-03T05:07:14;0.90;88.80
18365;DHT22;9309;52.126;11.616;2023-03-03T05:09:42;1.00;89.00
18365;DHT22;9309;52.126;11.616;2023-03-03T05:12:08;1.10;88.10
18365;DHT22;9309;52.126;11.616;2023-03-03T05:14:35;1.10;87.80
18365;DHT22;9309;52.126;11.616;2023-03-03T05:17:03;1.00;88.30
18365;DHT22;9309;52.126;11.616;2023-03-03T05:19:30;1.00;88.40
18365;DHT22;9309;52.126;11.616;2023-03-03T05:21:57;0.90;89.10
18365;DHT22;9309;52.126;11.616;2023-03-03T05:24:24;0.90;88.90
18365;DHT22;9309;52.126;11.616;2023-03-03T05:26:51;0.90;89.50
18365;DHT22;9309;52.126;11.616;2023-03-03T05:29:18;1.10;88.90
18365;DHT22;9309;52.126;11.616;2023-03-03T05:31:45;1.30;88.30
18365;DHT22;9309;52.126;11.616;2023-03-03T05:34:12;1.20;87.80
18365;DHT22;9309;52.126;11.616;2023-03-03T05:36:39;1.20;86.90
18365;DHT22;9309;52.126;11.616;2023-03-03T05:39:06;1.30;86.80
18365;DHT22;9309;52.126;11.616;2023-03-03T05:41:33;1.10;87.30
18365;DHT22;9309;52.126;11.616;2023-03-03T05:44:01;1.10;88.20
18365;DHT22;9309;52.126;11.616;2023-03-03T05:46:28;1.20;88.20
18365;DHT22;9309;52.126;11.616;2023-03-03T05:48:54;1.20;87.50
18365;DHT22;9309;52.126;11.616;2023-03-03T05:51:22;1.20;86.70
18365;DHT22;9309;52.126;11.616;2023-03-03T05:53:49;1.10;88.00
18365;DHT22;9309;52.126;11.616;2023-03-03T05:56:16;1.10;88.50
18365;DHT22;9309;52.126;11.616;2023-03-03T05:58:43;1.00;88.90
18365;DHT22;9309;52.126;11.616;2023-03-03T06:01:09;1.10;88.40
18365;DHT22;9309;52.126;11.616;2023-03-03T06:03:36;1.00;88.60
18365;DHT22;9309;52.126;11.616;2023-03-03T06:06:03;1.10;87.90
18365;DHT22;9309;52.126;11.616;2023-03-03T06:08:31;1.10;87.70
18365;DHT22;9309;52.126;11.616;2023-03-03T06:10:58;1.20;86.90
18365;DHT22;9309;52.126;11.616;2023-03-03T06:13:24;1.10;88.30
18365;DHT22;9309;52.126;11.616;2023-03-03T06:15:51;1.20;88.00
18365;DHT22;9309;52.126;11.616;2023-03-03T06:18:18;1.20;87.30
18365;DHT22;9309;52.126;11.616;2023-03-03T06:20:49;1.20;88.10
18365;DHT22;9309;52.126;11.616;2023-03-03T06:23:16;1.20;87.80
18365;DHT22;9309;52.126;11.616;2023-03-03T06:25:44;1.20;87.30
18365;DHT22;9309;52.126;11.616;2023-03-03T06:28:12;1.30;86.90
18365;DHT22;9309;52.126;11.616;2023-03-03T06:30:39;1.20;87.10
18365;DHT22;9309;52.126;11.616;2023-03-03T06:33:06;0.90;88.40
18365;DHT22;9309;52.126;11.616;2023-03-03T06:35:32;1.00;88.50
18365;DHT22;9309;52.126;11.616;2023-03-03T06:37:59;1.20;86.70
18365;DHT22;9309;52.126;11.616;2023-03-03T06:40:26;1.20;87.30
18365;DHT22;9309;52.126;11.616;2023-03-03T06:42:54;1.20;87.70
18365;DHT22;9309;52.126;11.616;2023-03-03T06:45:20;1.30;87.10
18365;DHT22;9309;52.126;11.616;2023-03-03T06:47:47;1.40;86.80
18365;DHT22;9309;52.126;11.616;2023-03-03T06:50:17;1.40;85.80
18365;DHT22;9309;52.126;11.616;2023-03-03T06:52:45;1.30;86.80
18365;DHT22;9309;52.126;11.616;2023-03-03T06:55:16;1.20;86.90
18365;DHT22;9309;52.126;11.616;2023-03-03T06:57:43;1.10;87.70
18365;DHT22;9309;52.126;11.616;2023-03-03T07:00:17;1.10;86.90
18365;DHT22;9309;52.126;11.616;2023-03-03T07:02:45;1.10;87.30
18365;DHT22;9309;52.126;11.616;2023-03-03T07:05:16;1.10;86.80
18365;DHT22;9309;52.126;11.616;2023-03-03T07:07:43;1.10;87.40
18365;DHT22;9309;52.126;11.616;2023-03-03T07:10:19;1.10;87.20
18365;DHT22;9309;52.126;11.616;2023-03-03T07:12:47;1.10;87.30
18365;DHT22;9309;52.126;11.616;2023-03-03T07:15:16;1.10;87.80
18365;DHT22;9309;52.126;11.616;2023-03-03T07:17:47;1.30;86.00
18365;DHT22;9309;52.126;11.616;2023-03-03T07:20:18;1.40;85.50
18365;DHT22;9309;52.126;11.616;2023-03-03T07:22:45;1.50;85.30
18365;DHT22;9309;52.126;11.616;2023-03-03T07:25:21;1.30;86.30
18365;DHT22;9309;52.126;11.616;2023-03-03T07:27:52;1.50;86.90
18365;DHT22;9309;52.126;11.616;2023-03-03T07:30:26;1.80;84.20
18365;DHT22;9309;52.126;11.616;2023-03-03T07:32:53;1.50;84.00
18365;DHT22;9309;52.126;11.616;2023-03-03T07:35:39;1.40;85.20
18365;DHT22;9309;52.126;11.616;2023-03-03T07:38:18;1.60;84.30
18365;DHT22;9309;52.126;11.616;2023-03-03T07:40:49;1.50;84.40
18365;DHT22;9309;52.126;11.616;2023-03-03T07:43:29;1.50;84.70
18365;DHT22;9309;52.126;11.616;2023-03-03T07:46:01;1.70;83.00
18365;DHT22;9309;52.126;11.616;2023-03-03T07:48:30;1.50;84.20
18365;DHT22;9309;52.126;11.616;2023-03-03T07:51:03;1.40;84.90
18365;DHT22;9309;52.126;11.616;2023-03-03T07:53:33;1.50;83.50
18365;DHT22;9309;52.126;11.616;2023-03-03T07:56:04;1.30;84.50
18365;DHT22;9309;52.126;11.616;2023-03-03T07:58:36;1.20;85.50
18365;DHT22;9309;52.126;11.616;2023-03-03T08:01:30;1.30;86.10
18365;DHT22;9309;52.126;11.616;2023-03-03T08:04:00;1.50;84.70
18365;DHT22;9309;52.126;11.616;2023-03-03T08:06:53;1.70;83.50
18365;DHT22;9309;52.126;11.616;2023-03-03T08:09:35;1.50;84.40
18365;DHT22;9309;52.126;11.616;2023-03-03T08:12:23;1.40;84.90
18365;DHT22;9309;52.126;11.616;2023-03-03T08:14:52;1.50;85.00
18365;DHT22;9309;52.126;11.616;2023-03-03T08:17:22;1.60;84.40
18365;DHT22;9309;52.126;11.616;2023-03-03T08:19:52;1.60;83.80
18365;DHT22;9309;52.126;11.616;2023-03-03T08:22:25;1.60;83.50
18365;DHT22;9309;52.126;11.616;2023-03-03T08:24:54;1.70;83.70
18365;DHT22;9309;52.126;11.616;2023-03-03T08:27:21;1.90;84.00
18365;DHT22;9309;52.126;11.616;2023-03-03T08:29:48;2.00;82.70
18365;DHT22;9309;52.126;11.616;2023-03-03T08:32:14;2.20;83.00
18365;DHT22;9309;52.126;11.616;2023-03-03T08:34:42;2.30;81.40
18365;DHT22;9309;52.126;11.616;2023-03-03T08:37:09;2.10;80.90
18365;DHT22;9309;52.126;11.616;2023-03-03T08:39:36;1.80;82.10
18365;DHT22;9309;52.126;11.616;2023-03-03T08:42:02;1.80;82.50
18365;DHT22;9309;52.126;11.616;2023-03-03T08:44:29;1.90;82.30
18365;DHT22;9309;52.126;11.616;2023-03-03T08:46:56;1.90;82.10
18365;DHT22;9309;52.126;11.616;2023-03-03T08:49:22;1.90;82.20
18365;DHT22;9309;52.126;11.616;2023-03-03T08:51:50;1.80;82.70
18365;DHT22;9309;52.126;11.616;2023-03-03T08:54:19;2.00;81.50
18365;DHT22;9309;52.126;11.616;2023-03-03T08:56:45;2.00;81.60
18365;DHT22;9309;52.126;11.616;2023-03-03T08:59:12;2.10;81.40
18365;DHT22;9309;52.126;11.616;2023-03-03T09:01:38;1.90;82.00
18365;DHT22;9309;52.126;11.616;2023-03-03T09:04:07;1.90;82.10
18365;DHT22;9309;52.126;11.616;2023-03-03T09:06:34;2.10;81.90
18365;DHT22;9309;52.126;11.616;2023-03-03T09:09:02;2.30;81.10
18365;DHT22;9309;52.126;11.616;2023-03-03T09:11:30;2.50;79.00
18365;DHT22;9309;52.126;11.616;2023-03-03T09:14:01;2.50;80.00
18365;DHT22;9309;52.126;11.616;2023-03-03T09:16:31;2.40;79.60
18365;DHT22;9309;52.126;11.616;2023-03-03T09:19:06;2.40;80.10
18365;DHT22;9309;52.126;11.616;2023-03-03T09:21:41;2.50;79.30
18365;DHT22;9309;52.126;11.616;2023-03-03T09:24:19;2.60;79.40
18365;DHT22;9309;52.126;11.616;2023-03-03T09:26:49;2.70;78.90
18365;DHT22;9309;52.126;11.616;2023-03-03T09:29:25;2.60;79.40
18365;DHT22;9309;52.126;11.616;2023-03-03T09:31:54;2.40;80.60
18365;DHT22;9309;52.126;11.616;2023-03-03T09:34:23;2.50;79.30
18365;DHT22;9309;52.126;11.616;2023-03-03T09:36:52;2.70;79.20
18365;DHT22;9309;52.126;11.616;2023-03-03T09:39:22;2.70;79.20
18365;DHT22;9309;52.126;11.616;2023-03-03T09:42:32;2.70;78.80
18365;DHT22;9309;52.126;11.616;2023-03-03T09:45:35;2.70;78.90
18365;DHT22;9309;52.126;11.616;2023-03-03T09:48:28;2.60;78.90
18365;DHT22;9309;52.126;11.616;2023-03-03T09:51:11;2.50;79.40
18365;DHT22;9309;52.126;11.616;2023-03-03T09:54:06;2.40;79.70
18365;DHT22;9309;52.126;11.616;2023-03-03T09:56:42;2.50;81.60
18365;DHT22;9309;52.126;11.616;2023-03-03T09:59:21;2.70;79.80
18365;DHT22;9309;52.126;11.616;2023-03-03T10:02:10;2.70;79.40
18365;DHT22;9309;52.126;11.616;2023-03-03T10:05:00;2.70;79.60
18365;DHT22;9309;52.126;11.616;2023-03-03T10:07:40;2.90;78.40
18365;DHT22;9309;52.126;11.616;2023-03-03T10:10:20;2.90;77.60
18365;DHT22;9309;52.126;11.616;2023-03-03T10:13:04;3.00;78.30
18365;DHT22;9309;52.126;11.616;2023-03-03T10:15:45;2.80;79.20
18365;DHT22;9309;52.126;11.616;2023-03-03T10:18:23;2.80;79.30
18365;DHT22;9309;52.126;11.616;2023-03-03T10:21:01;2.80;79.00
18365;DHT22;9309;52.126;11.616;2023-03-03T10:23:50;2.90;78.60
18365;DHT22;9309;52.126;11.616;2023-03-03T10:26:26;2.90;79.40
18365;DHT22;9309;52.126;11.616;2023-03-03T10:29:04;2.80;79.90
18365;DHT22;9309;52.126;11.616;2023-03-03T10:31:45;3.00;79.80
18365;DHT22;9309;52.126;11.616;2023-03-03T10:34:28;3.30;76.90
18365;DHT22;9309;52.126;11.616;2023-03-03T10:37:07;3.60;75.80
18365;DHT22;9309;52.126;11.616;2023-03-03T10:39:48;3.80;74.70
18365;DHT22;9309;52.126;11.616;2023-03-03T10:42:30;3.70;74.80
18365;DHT22;9309;52.126;11.616;2023-03-03T10:45:19;3.70;76.00
18365;DHT22;9309;52.126;11.616;2023-03-03T10:48:03;3.90;74.90
18365;DHT22;9309;52.126;11.616;2023-03-03T10:50:38;3.80;75.10
18365;DHT22;9309;52.126;11.616;2023-03-03T10:53:20;3.70;75.40
18365;DHT22;9309;52.126;11.616;2023-03-03T10:56:00;3.70;75.90
18365;DHT22;9309;52.126;11.616;2023-03-03T10:58:41;3.70;76.20
18365;DHT22;9309;52.126;11.616;2023-03-03T11:01:16;3.80;76.20
18365;DHT22;9309;52.126;11.616;2023-03-03T11:03:58;4.10;75.30
18365;DHT22;9309;52.126;11.616;2023-03-03T11:06:37;4.00;74.60
18365;DHT22;9309;52.126;11.616;2023-03-03T11:09:11;4.20;74.70
18365;DHT22;9309;52.126;11.616;2023-03-03T11:11:44;4.10;74.70
18365;DHT22;9309;52.126;11.616;2023-03-03T11:14:20;4.20;74.30
18365;DHT22;9309;52.126;11.616;2023-03-03T11:16:55;4.00;75.50
18365;DHT22;9309;52.126;11.616;2023-03-03T11:19:39;3.90;75.00
18365;DHT22;9309;52.126;11.616;2023-03-03T11:22:24;3.80;75.70
18365;DHT22;9309;52.126;11.616;2023-03-03T11:25:07;3.90;75.10
18365;DHT22;9309;52.126;11.616;2023-03-03T11:27:54;4.40;74.10
18365;DHT22;9309;52.126;11.616;2023-03-03T11:30:30;4.60;72.00
18365;DHT22;9309;52.126;11.616;2023-03-03T11:33:04;4.60;72.00
18365;DHT22;9309;52.126;11.616;2023-03-03T11:35:37;4.60;71.60
18365;DHT22;9309;52.126;11.616;2023-03-03T11:38:25;4.50;72.40
18365;DHT22;9309;52.126;11.616;2023-03-03T11:40:56;4.70;72.20
18365;DHT22;9309;52.126;11.616;2023-03-03T11:43:27;4.90;73.00
18365;DHT22;9309;52.126;11.616;2023-03-03T11:46:01;4.90;71.60
18365;DHT22;9309;52.126;11.616;2023-03-03T11:48:35;4.70;71.90
18365;DHT22;9309;52.126;11.616;2023-03-03T11:51:05;4.60;71.60
18365;DHT22;9309;52.126;11.616;2023-03-03T11:53:43;4.10;74.70
18365;DHT22;9309;52.126;11.616;2023-03-03T11:56:19;4.40;73.60
18365;DHT22;9309;52.126;11.616;2023-03-03T11:58:53;4.40;73.90
18365;DHT22;9309;52.126;11.616;2023-03-03T12:01:30;4.50;73.20
18365;DHT22;9309;52.126;11.616;2023-03-03T12:04:02;4.70;72.30
18365;DHT22;9309;52.126;11.616;2023-03-03T12:06:36;5.20;70.90
18365;DHT22;9309;52.126;11.616;2023-03-03T12:09:16;5.50;69.00
18365;DHT22;9309;52.126;11.616;2023-03-03T12:11:48;5.60;68.90
18365;DHT22;9309;52.126;11.616;2023-03-03T12:14:35;5.50;70.00
18365;DHT22;9309;52.126;11.616;2023-03-03T12:17:12;5.40;69.10
18365;DHT22;9309;52.126;11.616;2023-03-03T12:19:49;5.30;70.20
18365;DHT22;9309;52.126;11.616;2023-03-03T12:22:28;5.40;69.30
18365;DHT22;9309;52.126;11.616;2023-03-03T12:25:17;6.20;67.00
18365;DHT22;9309;52.126;11.616;2023-03-03T12:27:49;6.50;64.20
18365;DHT22;9309;52.126;11.616;2023-03-03T12:30:24;6.40;65.30
18365;DHT22;9309;52.126;11.616;2023-03-03T12:33:16;6.10;65.40
18365;DHT22;9309;52.126;11.616;2023-03-03T12:35:54;5.80;67.30
18365;DHT22;9309;52.126;11.616;2023-03-03T12:38:30;5.50;68.70
18365;DHT22;9309;52.126;11.616;2023-03-03T12:41:04;5.10;69.80
18365;DHT22;9309;52.126;11.616;2023-03-03T12:43:42;5.00;71.00
18365;DHT22;9309;52.126;11.616;2023-03-03T12:46:16;5.40;70.00
18365;DHT22;9309;52.126;11.616;2023-03-03T12:48:46;5.30;70.10
18365;DHT22;9309;52.126;11.616;2023-03-03T12:51:25;5.50;69.60
18365;DHT22;9309;52.126;11.616;2023-03-03T12:54:09;5.70;68.30
18365;DHT22;9309;52.126;11.616;2023-03-03T12:56:43;5.70;68.40
18365;DHT22;9309;52.126;11.616;2023-03-03T12:59:15;5.70;68.30
18365;DHT22;9309;52.126;11.616;2023-03-03T13:01:57;5.60;68.50
18365;DHT22;9309;52.126;11.616;2023-03-03T13:04:34;5.40;69.50
18365;DHT22;9309;52.126;11.616;2023-03-03T13:07:09;5.10;70.20
18365;DHT22;9309;52.126;11.616;2023-03-03T13:10:01;5.00;70.40
18365;DHT22;9309;52.126;11.616;2023-03-03T13:12:38;5.00;70.40
18365;DHT22;9309;52.126;11.616;2023-03-03T13:15:13;4.90;71.80
18365;DHT22;9309;52.126;11.616;2023-03-03T13:17:49;5.10;71.00
18365;DHT22;9309;52.126;11.616;2023-03-03T13:20:24;5.10;70.60
18365;DHT22;9309;52.126;11.616;2023-03-03T13:23:03;5.20;70.50
18365;DHT22;9309;52.126;11.616;2023-03-03T13:25:43;5.30;69.80
18365;DHT22;9309;52.126;11.616;2023-03-03T13:28:23;5.30;70.50
18365;DHT22;9309;52.126;11.616;2023-03-03T13:30:56;5.30;69.40
18365;DHT22;9309;52.126;11.616;2023-03-03T13:33:27;5.40;69.60
18365;DHT22;9309;52.126;11.616;2023-03-03T13:35:56;5.50;70.30
18365;DHT22;9309;52.126;11.616;2023-03-03T13:38:28;5.90;67.50
18365;DHT22;9309;52.126;11.616;2023-03-03T13:41:03;5.80;68.10
18365;DHT22;9309;52.126;11.616;2023-03-03T13:43:35;6.00;67.30
18365;DHT22;9309;52.126;11.616;2023-03-03T13:46:08;7.00;65.10
18365;DHT22;9309;52.126;11.616;2023-03-03T13:48:51;7.20;62.50
18365;DHT22;9309;52.126;11.616;2023-03-03T13:51:31;7.10;63.30
18365;DHT22;9309;52.126;11.616;2023-03-03T13:54:08;6.90;63.60
18365;DHT22;9309;52.126;11.616;2023-03-03T13:56:48;6.80;63.30
18365;DHT22;9309;52.126;11.616;2023-03-03T13:59:26;6.60;64.90
18365;DHT22;9309;52.126;11.616;2023-03-03T14:02:00;6.70;64.40
18365;DHT22;9309;52.126;11.616;2023-03-03T14:04:38;6.50;65.00
18365;DHT22;9309;52.126;11.616;2023-03-03T14:07:18;6.20;66.20
18365;DHT22;9309;52.126;11.616;2023-03-03T14:10:03;6.10;67.30
18365;DHT22;9309;52.126;11.616;2023-03-03T14:12:39;5.90;67.20
18365;DHT22;9309;52.126;11.616;2023-03-03T14:15:15;5.90;67.50
18365;DHT22;9309;52.126;11.616;2023-03-03T14:17:59;5.90;68.40
18365;DHT22;9309;52.126;11.616;2023-03-03T14:20:30;6.10;67.50
18365;DHT22;9309;52.126;11.616;2023-03-03T14:23:00;6.10;67.60
18365;DHT22;9309;52.126;11.616;2023-03-03T14:25:52;6.40;67.50
18365;DHT22;9309;52.126;11.616;2023-03-03T14:28:21;6.30;67.70
18365;DHT22;9309;52.126;11.616;2023-03-03T14:30:48;6.20;67.50
18365;DHT22;9309;52.126;11.616;2023-03-03T14:33:26;6.40;66.80
18365;DHT22;9309;52.126;11.616;2023-03-03T14:36:05;6.20;67.80
18365;DHT22;9309;52.126;11.616;2023-03-03T14:38:39;6.30;66.80
18365;DHT22;9309;52.126;11.616;2023-03-03T14:41:14;6.20;67.30
18365;DHT22;9309;52.126;11.616;2023-03-03T14:43:43;6.00;68.10
18365;DHT22;9309;52.126;11.616;2023-03-03T14:46:31;5.90;68.50
18365;DHT22;9309;52.126;11.616;2023-03-03T14:48:59;6.00;68.10
18365;DHT22;9309;52.126;11.616;2023-03-03T14:51:28;6.10;68.00
18365;DHT22;9309;52.126;11.616;2023-03-03T14:53:56;6.00;67.40
18365;DHT22;9309;52.126;11.616;2023-03-03T14:56:26;5.90;68.40
18365;DHT22;9309;52.126;11.616;2023-03-03T14:58:54;5.80;68.10
18365;DHT22;9309;52.126;11.616;2023-03-03T15:01:38;5.40;69.80
18365;DHT22;9309;52.126;11.616;2023-03-03T15:04:22;5.40;70.60
18365;DHT22;9309;52.126;11.616;2023-03-03T15:06:50;5.50;70.30
18365;DHT22;9309;52.126;11.616;2023-03-03T15:09:28;5.60;70.10
18365;DHT22;9309;52.126;11.616;2023-03-03T15:12:00;5.90;68.80
18365;DHT22;9309;52.126;11.616;2023-03-03T15:14:31;5.80;68.40
18365;DHT22;9309;52.126;11.616;2023-03-03T15:17:25;5.70;69.30
18365;DHT22;9309;52.126;11.616;2023-03-03T15:20:08;5.60;70.40
18365;DHT22;9309;52.126;11.616;2023-03-03T15:22:46;5.80;69.20
18365;DHT22;9309;52.126;11.616;2023-03-03T15:25:21;5.50;69.90
18365;DHT22;9309;52.126;11.616;2023-03-03T15:28:00;5.20;71.00
18365;DHT22;9309;52.126;11.616;2023-03-03T15:30:36;5.00;71.80
18365;DHT22;9309;52.126;11.616;2023-03-03T15:33:11;5.10;72.30
18365;DHT22;9309;52.126;11.616;2023-03-03T15:35:47;5.40;71.70
18365;DHT22;9309;52.126;11.616;2023-03-03T15:38:23;5.40;71.40
18365;DHT22;9309;52.126;11.616;2023-03-03T15:40:59;5.40;71.20
18365;DHT22;9309;52.126;11.616;2023-03-03T15:43:35;5.60;71.20
18365;DHT22;9309;52.126;11.616;2023-03-03T15:46:13;5.40;71.00
18365;DHT22;9309;52.126;11.616;2023-03-03T15:48:50;5.30;71.30
18365;DHT22;9309;52.126;11.616;2023-03-03T15:51:27;5.10;71.80
18365;DHT22;9309;52.126;11.616;2023-03-03T15:54:17;5.10;72.60
18365;DHT22;9309;52.126;11.616;2023-03-03T15:56:50;4.90;72.90
18365;DHT22;9309;52.126;11.616;2023-03-03T15:59:50;4.80;73.50
18365;DHT22;9309;52.126;11.616;2023-03-03T16:02:20;4.80;73.80
18365;DHT22;9309;52.126;11.616;2023-03-03T16:04:54;4.80;73.60
18365;DHT22;9309;52.126;11.616;2023-03-03T16:07:29;4.70;74.30
18365;DHT22;9309;52.126;11.616;2023-03-03T16:10:09;4.50;75.10
18365;DHT22;9309;52.126;11.616;2023-03-03T16:12:43;4.50;75.60
18365;DHT22;9309;52.126;11.616;2023-03-03T16:15:33;4.40;76.40
18365;DHT22;9309;52.126;11.616;2023-03-03T16:18:06;4.40;76.60
18365;DHT22;9309;52.126;11.616;2023-03-03T16:20:39;4.20;77.10